sensor_id;sensor_type;location;lat;lon;timestamp;pressure;altitude;pressure_sealevel;temperature;humidity
5298;BME280;14738;42.668;23.250;2023-07-20T03:51:11;48545.16;;;-141.90;60.42
5298;BME280;14738;42.668;23.250;2023-07-20T03:53:36;48549.13;;;-141.90;59.42
5298;BME280;14738;42.668;23.250;2023-07-20T03:56:02;48541.19;;;-141.90;58.14
5298;BME280;14738;42.668;23.250;2023-07-20T03:58:27;48547.13;;;-141.90;57.64
5298;BME280;14738;42.668;23.250;2023-07-20T04:00:54;48565.00;;;-141.90;57.42
5298;BME280;14738;42.668;23.250;2023-07-20T04:03:20;48610.66;;;-141.90;53.74
5298;BME280;14738;42.668;23.250;2023-07-20T04:05:46;48620.59;;;-141.90;41.19
5298;BME280;14738;42.668;23.250;2023-07-20T04:08:11;48648.38;;;-141.90;40.29
5298;BME280;14738;42.668;23.250;2023-07-20T04:10:37;48696.03;;;-141.90;39.21
5298;BME280;14738;42.668;23.250;2023-07-20T04:13:03;48711.91;;;-141.90;38.26
5298;BME280;14738;42.668;23.250;2023-07-20T04:15:29;48682.13;;;-141.90;39.45
5298;BME280;14738;42.668;23.250;2023-07-20T04:17:55;48725.81;;;-141.90;36.16
5298;BME280;14738;42.668;23.250;2023-07-20T04:20:22;48729.78;;;-141.90;37.03
5298;BME280;14738;42.668;23.250;2023-07-20T04:22:47;48711.91;;;-141.90;37.83
5298;BME280;14738;42.668;23.250;2023-07-20T04:25:12;48767.50;;;-141.90;35.42
5298;BME280;14738;42.668;23.250;2023-07-20T04:27:38;48779.44;;;-141.90;36.33
5298;BME280;14738;42.668;23.250;2023-07-20T04:30:04;48815.16;;;-141.90;34.80
5298;BME280;14738;42.668;23.250;2023-07-20T04:32:29;48819.13;;;-141.90;32.79
5298;BME280;14738;42.668;23.250;2023-07-20T04:34:55;48811.19;;;-141.90;32.75
5298;BME280;14738;42.668;23.250;2023-07-20T04:37:21;48835.03;;;-141.90;32.09
5298;BME280;14738;42.668;23.250;2023-07-20T04:39:46;48910.47;;;-141.90;31.29
5298;BME280;14738;42.668;23.250;2023-07-20T04:42:12;48894.59;;;-141.90;30.78
5298;BME280;14738;42.668;23.250;2023-07-20T04:44:37;48954.16;;;-141.90;29.17
5298;BME280;14738;42.668;23.250;2023-07-20T04:47:03;48906.50;;;-141.90;32.73
5298;BME280;14738;42.668;23.250;2023-07-20T04:49:28;48914.44;;;-141.90;31.94
5298;BME280;14738;42.668;23.250;2023-07-20T04:51:53;49017.69;;;-141.90;28.54
5298;BME280;14738;42.668;23.250;2023-07-20T04:54:19;48985.91;;;-141.90;29.86
5298;BME280;14738;42.668;23.250;2023-07-20T04:56:45;48977.97;;;-141.90;28.92
5298;BME280;14738;42.668;23.250;2023-07-20T04:59:10;48993.84;;;-141.90;28.63
5298;BME280;14738;42.668;23.250;2023-07-20T05:01:36;48977.97;;;-141.90;28.82
5298;BME280;14738;42.668;23.250;2023-07-20T05:04:01;48999.81;;;-141.90;28.91
5298;BME280;14738;42.668;23.250;2023-07-20T05:06:27;48962.09;;;-141.90;29.39
5298;BME280;14738;42.668;23.250;2023-07-20T05:08:52;48870.75;;;-141.90;30.74
5298;BME280;14738;42.668;23.250;2023-07-20T05:11:18;48938.25;;;-141.90;29.94
5298;BME280;14738;42.668;23.250;2023-07-20T05:13:43;49033.56;;;-141.90;28.00
5298;BME280;14738;42.668;23.250;2023-07-20T05:16:08;48972.00;;;-141.90;28.70
5298;BME280;14738;42.668;23.250;2023-07-20T05:18:34;49047.47;;;-141.90;28.33
5298;BME280;14738;42.668;23.250;2023-07-20T05:20:59;49059.38;;;-141.90;26.83
5298;BME280;14738;42.668;23.250;2023-07-20T05:23:24;49190.44;;;-141.90;25.97
5298;BME280;14738;42.668;23.250;2023-07-20T05:25:54;49103.06;;;-141.90;26.65
5298;BME280;14738;42.668;23.250;2023-07-20T05:28:20;49053.41;;;-141.90;26.76
5298;BME280;14738;42.668;23.250;2023-07-20T05:30:46;49023.63;;;-141.90;27.47
5298;BME280;14738;42.668;23.250;2023-07-20T05:33:11;49176.53;;;-141.90;26.31
5298;BME280;14738;42.668;23.250;2023-07-20T05:35:37;49043.50;;;-141.90;28.30
5298;BME280;14738;42.668;23.250;2023-07-20T05:38:03;49057.41;;;-141.90;26.75
5298;BME280;14738;42.668;23.250;2023-07-20T05:40:30;49085.19;;;-141.90;26.71
5298;BME280;14738;42.668;23.250;2023-07-20T05:42:56;49116.97;;;-141.90;25.55
5298;BME280;14738;42.668;23.250;2023-07-20T05:45:22;49168.59;;;-141.90;24.88
5298;BME280;14738;42.668;23.250;2023-07-20T05:47:47;49208.31;;;-141.90;24.75
5298;BME280;14738;42.668;23.250;2023-07-20T05:50:13;49168.59;;;-141.90;26.15
5298;BME280;14738;42.668;23.250;2023-07-20T05:52:39;49182.50;;;-141.90;25.39
5298;BME280;14738;42.668;23.250;2023-07-20T05:55:06;49152.69;;;-141.90;25.35
5298;BME280;14738;42.668;23.250;2023-07-20T05:57:32;49140.78;;;-141.90;25.21
5298;BME280;14738;42.668;23.250;2023-07-20T05:59:57;49168.59;;;-141.90;25.58
5298;BME280;14738;42.668;23.250;2023-07-20T06:02:23;49144.75;;;-141.90;25.96
5298;BME280;14738;42.668;23.250;2023-07-20T06:04:48;49214.25;;;-141.90;25.37
5298;BME280;14738;42.668;23.250;2023-07-20T06:07:14;49242.06;;;-141.90;25.51
5298;BME280;14738;42.668;23.250;2023-07-20T06:09:40;49315.53;;;-141.90;24.77
5298;BME280;14738;42.668;23.250;2023-07-20T06:12:06;49307.59;;;-141.90;23.86
5298;BME280;14738;42.668;23.250;2023-07-20T06:14:31;49140.78;;;-141.90;25.26
5298;BME280;14738;42.668;23.250;2023-07-20T06:16:57;49289.72;;;-141.90;24.39
5298;BME280;14738;42.668;23.250;2023-07-20T06:19:22;49389.00;;;-141.90;23.33
5298;BME280;14738;42.668;23.250;2023-07-20T06:21:48;49351.28;;;-141.90;23.17
5298;BME280;14738;42.668;23.250;2023-07-20T06:24:15;49351.28;;;-141.90;23.19
5298;BME280;14738;42.668;23.250;2023-07-20T06:26:40;49454.53;;;-141.90;22.24
5298;BME280;14738;42.668;23.250;2023-07-20T06:29:06;49383.03;;;-141.90;22.16
5298;BME280;14738;42.668;23.250;2023-07-20T06:31:32;49645.16;;;-141.90;21.04
5298;BME280;14738;42.668;23.250;2023-07-20T06:33:58;49440.63;;;-141.90;22.72
5298;BME280;14738;42.668;23.250;2023-07-20T06:36:23;49255.94;;;-141.90;24.21
5298;BME280;14738;42.668;23.250;2023-07-20T06:38:51;49299.63;;;-141.90;23.40
5298;BME280;14738;42.668;23.250;2023-07-20T06:41:18;49206.31;;;-141.90;24.42
5298;BME280;14738;42.668;23.250;2023-07-20T06:43:44;49357.22;;;-141.90;23.10
5298;BME280;14738;42.668;23.250;2023-07-20T06:46:09;49454.53;;;-141.90;21.83
5298;BME280;14738;42.668;23.250;2023-07-20T06:48:34;49434.66;;;-141.90;22.26
5298;BME280;14738;42.668;23.250;2023-07-20T06:51:00;49154.69;;;-141.90;24.63
5298;BME280;14738;42.668;23.250;2023-07-20T06:53:25;49303.59;;;-141.90;22.79
5298;BME280;14738;42.668;23.250;2023-07-20T06:55:50;49335.38;;;-141.90;23.18
5298;BME280;14738;42.668;23.250;2023-07-20T06:58:16;49422.75;;;-141.90;22.82
5298;BME280;14738;42.668;23.250;2023-07-20T07:00:41;49319.50;;;-141.90;23.43
5298;BME280;14738;42.668;23.250;2023-07-20T07:03:07;49355.25;;;-141.90;23.13
5298;BME280;14738;42.668;23.250;2023-07-20T07:05:36;49192.41;;;-141.90;25.10
5298;BME280;14738;42.668;23.250;2023-07-20T07:08:02;49116.97;;;-141.90;25.13
5298;BME280;14738;42.668;23.250;2023-07-20T07:10:27;48979.97;;;-141.90;27.03
5298;BME280;14738;42.668;23.250;2023-07-20T07:12:52;48962.09;;;-141.90;28.37
5298;BME280;14738;42.668;23.250;2023-07-20T07:15:19;49073.28;;;-141.90;27.89
5298;BME280;14738;42.668;23.250;2023-07-20T07:17:44;49158.66;;;-141.90;27.95
5298;BME280;14738;42.668;23.250;2023-07-20T07:20:10;49196.38;;;-141.90;26.80
5298;BME280;14738;42.668;23.250;2023-07-20T07:22:35;49202.34;;;-141.90;26.41
5298;BME280;14738;42.668;23.250;2023-07-20T07:25:01;49144.75;;;-141.90;27.29
5298;BME280;14738;42.668;23.250;2023-07-20T07:27:28;49065.34;;;-141.90;29.16
5298;BME280;14738;42.668;23.250;2023-07-20T07:29:53;49011.72;;;-141.90;29.38
5298;BME280;14738;42.668;23.250;2023-07-20T07:32:20;49017.69;;;-141.90;29.63
5298;BME280;14738;42.668;23.250;2023-07-20T07:34:45;49035.56;;;-141.90;29.08
5298;BME280;14738;42.668;23.250;2023-07-20T07:37:14;49063.34;;;-141.90;30.01
5298;BME280;14738;42.668;23.250;2023-07-20T07:39:39;49009.75;;;-141.90;30.06
5298;BME280;14738;42.668;23.250;2023-07-20T07:42:05;49045.47;;;-141.90;30.19
5298;BME280;14738;42.668;23.250;2023-07-20T07:44:31;48989.88;;;-141.90;30.00
5298;BME280;14738;42.668;23.250;2023-07-20T07:46:56;49003.78;;;-141.90;31.87
5298;BME280;14738;42.668;23.250;2023-07-20T07:49:22;48954.16;;;-141.90;30.64
5298;BME280;14738;42.668;23.250;2023-07-20T07:51:47;48934.28;;;-141.90;33.31
5298;BME280;14738;42.668;23.250;2023-07-20T07:54:13;48954.16;;;-141.90;32.10
5298;BME280;14738;42.668;23.250;2023-07-20T07:56:39;48958.13;;;-141.90;31.20
5298;BME280;14738;42.668;23.250;2023-07-20T07:59:04;48920.41;;;-141.90;31.05
5298;BME280;14738;42.668;23.250;2023-07-20T08:01:29;48918.41;;;-141.90;31.28
5298;BME280;14738;42.668;23.250;2023-07-20T08:03:55;48898.56;;;-141.90;31.87
5298;BME280;14738;42.668;23.250;2023-07-20T08:06:21;48880.69;;;-141.90;32.55
5298;BME280;14738;42.668;23.250;2023-07-20T08:08:46;48906.50;;;-141.90;32.64
5298;BME280;14738;42.668;23.250;2023-07-20T08:11:12;48842.97;;;-141.90;33.16
5298;BME280;14738;42.668;23.250;2023-07-20T08:13:37;48835.03;;;-141.90;33.53
5298;BME280;14738;42.668;23.250;2023-07-20T08:16:03;48842.97;;;-141.90;33.50
5298;BME280;14738;42.668;23.250;2023-07-20T08:18:29;48813.19;;;-141.90;33.55
5298;BME280;14738;42.668;23.250;2023-07-20T08:20:54;48789.34;;;-141.90;34.13
5298;BME280;14738;42.668;23.250;2023-07-20T08:23:20;48791.34;;;-141.90;33.73
5298;BME280;14738;42.668;23.250;2023-07-20T08:25:45;48811.19;;;-141.90;33.90
5298;BME280;14738;42.668;23.250;2023-07-20T08:28:12;48771.47;;;-141.90;32.67
5298;BME280;14738;42.668;23.250;2023-07-20T08:30:48;48797.28;;;-141.90;33.16
5298;BME280;14738;42.668;23.250;2023-07-20T08:33:15;48793.31;;;-141.90;32.28
5298;BME280;14738;42.668;23.250;2023-07-20T08:35:42;48737.72;;;-141.90;32.60
5298;BME280;14738;42.668;23.250;2023-07-20T08:38:08;48749.66;;;-141.90;31.67
5298;BME280;14738;42.668;23.250;2023-07-20T08:40:39;48821.13;;;-141.90;33.15
5298;BME280;14738;42.668;23.250;2023-07-20T08:43:04;48785.38;;;-141.90;33.23
5298;BME280;14738;42.668;23.250;2023-07-20T08:45:33;48787.38;;;-141.90;32.21
5298;BME280;14738;42.668;23.250;2023-07-20T08:48:00;48783.41;;;-141.90;34.08
5298;BME280;14738;42.668;23.250;2023-07-20T08:50:30;48761.56;;;-141.90;30.92
5298;BME280;14738;42.668;23.250;2023-07-20T08:52:57;48763.53;;;-141.90;31.72
5298;BME280;14738;42.668;23.250;2023-07-20T08:55:23;48761.56;;;-141.90;32.13
5298;BME280;14738;42.668;23.250;2023-07-20T08:57:57;48769.50;;;-141.90;32.30
5298;BME280;14738;42.668;23.250;2023-07-20T09:00:24;48823.09;;;-141.90;32.20
5298;BME280;14738;42.668;23.250;2023-07-20T09:02:52;48831.03;;;-141.90;31.52
5298;BME280;14738;42.668;23.250;2023-07-20T09:05:19;48835.03;;;-141.90;30.53
5298;BME280;14738;42.668;23.250;2023-07-20T09:07:44;48779.44;;;-141.90;31.51
5298;BME280;14738;42.668;23.250;2023-07-20T09:10:10;48827.06;;;-141.90;30.61
5298;BME280;14738;42.668;23.250;2023-07-20T09:12:38;48787.38;;;-141.90;31.39
5298;BME280;14738;42.668;23.250;2023-07-20T09:15:05;48755.59;;;-141.90;31.00
5298;BME280;14738;42.668;23.250;2023-07-20T09:17:31;48773.47;;;-141.90;31.69
5298;BME280;14738;42.668;23.250;2023-07-20T09:19:56;48811.19;;;-141.90;32.46
5298;BME280;14738;42.668;23.250;2023-07-20T09:22:29;48811.19;;;-141.90;29.64
5298;BME280;14738;42.668;23.250;2023-07-20T09:24:54;48801.25;;;-141.90;30.06
5298;BME280;14738;42.668;23.250;2023-07-20T09:27:20;48815.16;;;-141.90;30.87
5298;BME280;14738;42.668;23.250;2023-07-20T09:29:50;48819.13;;;-141.90;30.54
5298;BME280;14738;42.668;23.250;2023-07-20T09:32:20;48831.03;;;-141.90;29.10
5298;BME280;14738;42.668;23.250;2023-07-20T09:34:45;48789.34;;;-141.90;29.42
5298;BME280;14738;42.668;23.250;2023-07-20T09:37:11;48819.13;;;-141.90;30.06
5298;BME280;14738;42.668;23.250;2023-07-20T09:39:45;48860.81;;;-141.90;29.84
5298;BME280;14738;42.668;23.250;2023-07-20T09:42:12;48858.84;;;-141.90;29.41
5298;BME280;14738;42.668;23.250;2023-07-20T09:44:43;48882.66;;;-141.90;28.90
5298;BME280;14738;42.668;23.250;2023-07-20T09:47:09;48890.59;;;-141.90;29.16
5298;BME280;14738;42.668;23.250;2023-07-20T09:49:41;48922.38;;;-141.90;27.98
5298;BME280;14738;42.668;23.250;2023-07-20T09:52:11;48970.03;;;-141.90;28.59
5298;BME280;14738;42.668;23.250;2023-07-20T09:54:40;49009.75;;;-141.90;27.26
5298;BME280;14738;42.668;23.250;2023-07-20T09:57:08;48966.06;;;-141.90;26.70
5298;BME280;14738;42.668;23.250;2023-07-20T09:59:37;48934.28;;;-141.90;26.07
5298;BME280;14738;42.668;23.250;2023-07-20T10:02:11;48934.28;;;-141.90;27.44
5298;BME280;14738;42.668;23.250;2023-07-20T10:04:40;48902.53;;;-141.90;26.87
5298;BME280;14738;42.668;23.250;2023-07-20T10:07:10;48906.50;;;-141.90;27.21
5298;BME280;14738;42.668;23.250;2023-07-20T10:09:39;48900.53;;;-141.90;28.30
5298;BME280;14738;42.668;23.250;2023-07-20T10:12:07;48948.19;;;-141.90;27.48
5298;BME280;14738;42.668;23.250;2023-07-20T10:14:36;48922.38;;;-141.90;27.52
5298;BME280;14738;42.668;23.250;2023-07-20T10:17:05;48906.50;;;-141.90;27.66
5298;BME280;14738;42.668;23.250;2023-07-20T10:19:39;48922.38;;;-141.90;28.40
5298;BME280;14738;42.668;23.250;2023-07-20T10:22:12;48874.72;;;-141.90;27.32
5298;BME280;14738;42.668;23.250;2023-07-20T10:24:38;48898.56;;;-141.90;28.60
5298;BME280;14738;42.668;23.250;2023-07-20T10:27:05;48948.19;;;-141.90;26.53
5298;BME280;14738;42.668;23.250;2023-07-20T10:29:31;48946.19;;;-141.90;26.73
5298;BME280;14738;42.668;23.250;2023-07-20T10:31:57;48968.03;;;-141.90;26.68
5298;BME280;14738;42.668;23.250;2023-07-20T10:34:23;48974.00;;;-141.90;26.82
5298;BME280;14738;42.668;23.250;2023-07-20T10:36:49;48950.19;;;-141.90;27.72
5298;BME280;14738;42.668;23.250;2023-07-20T10:39:26;48916.41;;;-141.90;27.62
5298;BME280;14738;42.668;23.250;2023-07-20T10:42:10;48888.63;;;-141.90;28.58
5298;BME280;14738;42.668;23.250;2023-07-20T10:44:39;48896.56;;;-141.90;28.13
5298;BME280;14738;42.668;23.250;2023-07-20T10:47:09;48858.84;;;-141.90;27.16
5298;BME280;14738;42.668;23.250;2023-07-20T10:49:58;48934.28;;;-141.90;29.44
5298;BME280;14738;42.668;23.250;2023-07-20T10:52:25;48962.09;;;-141.90;28.00
5298;BME280;14738;42.668;23.250;2023-07-20T10:54:50;49015.69;;;-141.90;27.46
5298;BME280;14738;42.668;23.250;2023-07-20T10:59:48;49025.63;;;-141.90;27.78
5298;BME280;14738;42.668;23.250;2023-07-20T11:02:17;49029.59;;;-141.90;27.52
5298;BME280;14738;42.668;23.250;2023-07-20T11:04:47;49011.72;;;-141.90;27.02
5298;BME280;14738;42.668;23.250;2023-07-20T11:07:17;49041.50;;;-141.90;28.77
5298;BME280;14738;42.668;23.250;2023-07-20T11:09:43;49043.50;;;-141.90;27.72
5298;BME280;14738;42.668;23.250;2023-07-20T11:12:18;49053.41;;;-141.90;27.18
5298;BME280;14738;42.668;23.250;2023-07-20T11:14:56;49099.09;;;-141.90;27.72
5298;BME280;14738;42.668;23.250;2023-07-20T11:17:32;49180.50;;;-141.90;26.37
5298;BME280;14738;42.668;23.250;2023-07-20T11:19:59;49200.34;;;-141.90;25.88
5298;BME280;14738;42.668;23.250;2023-07-20T11:22:26;49120.94;;;-141.90;26.09
5298;BME280;14738;42.668;23.250;2023-07-20T11:24:55;49140.78;;;-141.90;25.56
5298;BME280;14738;42.668;23.250;2023-07-20T11:27:20;49144.75;;;-141.90;25.45
5298;BME280;14738;42.668;23.250;2023-07-20T11:29:48;49120.94;;;-141.90;25.72
5298;BME280;14738;42.668;23.250;2023-07-20T11:32:23;49124.91;;;-141.90;25.98
5298;BME280;14738;42.668;23.250;2023-07-20T11:34:48;49083.22;;;-141.90;26.07
5298;BME280;14738;42.668;23.250;2023-07-20T11:37:15;49037.53;;;-141.90;26.35
5298;BME280;14738;42.668;23.250;2023-07-20T11:39:41;49041.50;;;-141.90;25.79
5298;BME280;14738;42.668;23.250;2023-07-20T11:42:08;49027.59;;;-141.90;26.35
5298;BME280;14738;42.668;23.250;2023-07-20T11:44:34;48999.81;;;-141.90;26.92
5298;BME280;14738;42.668;23.250;2023-07-20T11:47:12;49017.69;;;-141.90;27.62
5298;BME280;14738;42.668;23.250;2023-07-20T11:49:41;49041.50;;;-141.90;26.86
5298;BME280;14738;42.668;23.250;2023-07-20T11:52:16;49033.56;;;-141.90;26.76
5298;BME280;14738;42.668;23.250;2023-07-20T11:54:43;49021.66;;;-141.90;26.47
5298;BME280;14738;42.668;23.250;2023-07-20T11:57:18;49047.47;;;-141.90;25.24
5298;BME280;14738;42.668;23.250;2023-07-20T11:59:57;49005.78;;;-141.90;24.23
5298;BME280;14738;42.668;23.250;2023-07-20T12:02:24;48983.94;;;-141.90;24.81
5298;BME280;14738;42.668;23.250;2023-07-20T12:04:54;48989.88;;;-141.90;25.26
5298;BME280;14738;42.668;23.250;2023-07-20T12:07:19;48962.09;;;-141.90;25.86
5298;BME280;14738;42.668;23.250;2023-07-20T12:10:02;48993.84;;;-141.90;24.68
5298;BME280;14738;42.668;23.250;2023-07-20T12:12:28;49031.59;;;-141.90;24.02
5298;BME280;14738;42.668;23.250;2023-07-20T12:14:53;49005.78;;;-141.90;24.68
5298;BME280;14738;42.668;23.250;2023-07-20T12:17:18;49009.75;;;-141.90;23.33
5298;BME280;14738;42.668;23.250;2023-07-20T12:19:44;48979.97;;;-141.90;23.15
5298;BME280;14738;42.668;23.250;2023-07-20T12:22:10;49009.75;;;-141.90;23.91
5298;BME280;14738;42.668;23.250;2023-07-20T12:24:36;49023.63;;;-141.90;23.75
5298;BME280;14738;42.668;23.250;2023-07-20T12:27:02;49041.50;;;-141.90;23.43
5298;BME280;14738;42.668;23.250;2023-07-20T12:29:28;48993.84;;;-141.90;24.28
5298;BME280;14738;42.668;23.250;2023-07-20T12:31:53;49037.53;;;-141.90;24.15
5298;BME280;14738;42.668;23.250;2023-07-20T12:34:19;48993.84;;;-141.90;23.68
5298;BME280;14738;42.668;23.250;2023-07-20T12:36:44;48985.91;;;-141.90;22.62
5298;BME280;14738;42.668;23.250;2023-07-20T12:39:10;48962.09;;;-141.90;22.00
5298;BME280;14738;42.668;23.250;2023-07-20T12:41:35;49009.75;;;-141.90;23.71
5298;BME280;14738;42.668;23.250;2023-07-20T12:44:00;49015.69;;;-141.90;22.91
5298;BME280;14738;42.668;23.250;2023-07-20T12:46:26;48977.97;;;-141.90;22.32
5298;BME280;14738;42.668;23.250;2023-07-20T12:48:53;48981.94;;;-141.90;22.86
5298;BME280;14738;42.668;23.250;2023-07-20T12:51:19;49011.72;;;-141.90;22.80
5298;BME280;14738;42.668;23.250;2023-07-20T12:53:44;49009.75;;;-141.90;23.15
5298;BME280;14738;42.668;23.250;2023-07-20T12:56:09;48977.97;;;-141.90;23.41
5298;BME280;14738;42.668;23.250;2023-07-20T12:58:35;49023.63;;;-141.90;22.59
5298;BME280;14738;42.668;23.250;2023-07-20T13:01:01;49053.41;;;-141.90;23.23
5298;BME280;14738;42.668;23.250;2023-07-20T13:03:27;48985.91;;;-141.90;23.47
5298;BME280;14738;42.668;23.250;2023-07-20T13:05:52;48989.88;;;-141.90;23.04
5298;BME280;14738;42.668;23.250;2023-07-20T13:08:18;48960.09;;;-141.90;23.61
5298;BME280;14738;42.668;23.250;2023-07-20T13:10:44;49001.81;;;-141.90;23.80
5298;BME280;14738;42.668;23.250;2023-07-20T13:13:10;49015.69;;;-141.90;24.29
5298;BME280;14738;42.668;23.250;2023-07-20T13:15:43;48970.03;;;-141.90;24.77
5298;BME280;14738;42.668;23.250;2023-07-20T13:18:09;48993.84;;;-141.90;24.63
5298;BME280;14738;42.668;23.250;2023-07-20T13:20:34;48985.91;;;-141.90;25.20
5298;BME280;14738;42.668;23.250;2023-07-20T13:22:59;48960.09;;;-141.90;25.58
5298;BME280;14738;42.668;23.250;2023-07-20T13:25:25;48966.06;;;-141.90;25.20
5298;BME280;14738;42.668;23.250;2023-07-20T13:27:50;48979.97;;;-141.90;25.59
5298;BME280;14738;42.668;23.250;2023-07-20T13:30:16;48997.81;;;-141.90;25.20
5298;BME280;14738;42.668;23.250;2023-07-20T13:32:45;48987.91;;;-141.90;24.83
5298;BME280;14738;42.668;23.250;2023-07-20T13:35:11;48970.03;;;-141.90;25.39
5298;BME280;14738;42.668;23.250;2023-07-20T13:37:37;48952.16;;;-141.90;25.32
5298;BME280;14738;42.668;23.250;2023-07-20T13:40:02;48942.22;;;-141.90;25.02
5298;BME280;14738;42.668;23.250;2023-07-20T13:42:30;48960.09;;;-141.90;24.52
5298;BME280;14738;42.668;23.250;2023-07-20T13:44:55;48954.16;;;-141.90;24.54
5298;BME280;14738;42.668;23.250;2023-07-20T13:47:21;48954.16;;;-141.90;24.77
5298;BME280;14738;42.668;23.250;2023-07-20T13:49:46;48926.34;;;-141.90;25.02
5298;BME280;14738;42.668;23.250;2023-07-20T13:52:11;48890.59;;;-141.90;24.84
5298;BME280;14738;42.668;23.250;2023-07-20T13:54:37;48898.56;;;-141.90;25.61
5298;BME280;14738;42.668;23.250;2023-07-20T13:57:02;48942.22;;;-141.90;26.36
5298;BME280;14738;42.668;23.250;2023-07-20T13:59:28;48898.56;;;-141.90;26.91
5298;BME280;14738;42.668;23.250;2023-07-20T14:01:53;48892.59;;;-141.90;26.52
5298;BME280;14738;42.668;23.250;2023-07-20T14:04:18;48930.31;;;-141.90;26.05
5298;BME280;14738;42.668;23.250;2023-07-20T14:06:44;48898.56;;;-141.90;25.50
5298;BME280;14738;42.668;23.250;2023-07-20T14:09:09;48910.47;;;-141.90;25.22
5298;BME280;14738;42.668;23.250;2023-07-20T14:11:35;48910.47;;;-141.90;25.56
5298;BME280;14738;42.668;23.250;2023-07-20T14:14:00;48898.56;;;-141.90;25.58
5298;BME280;14738;42.668;23.250;2023-07-20T14:16:26;48922.38;;;-141.90;26.30
5298;BME280;14738;42.668;23.250;2023-07-20T14:18:52;48872.75;;;-141.90;25.85
5298;BME280;14738;42.668;23.250;2023-07-20T14:21:19;48902.53;;;-141.90;26.25
5298;BME280;14738;42.668;23.250;2023-07-20T14:23:49;48896.56;;;-141.90;26.15
5298;BME280;14738;42.668;23.250;2023-07-20T14:26:15;48888.63;;;-141.90;26.34
5298;BME280;14738;42.668;23.250;2023-07-20T14:28:41;48884.66;;;-141.90;26.54
5298;BME280;14738;42.668;23.250;2023-07-20T14:31:07;48878.69;;;-141.90;26.20
5298;BME280;14738;42.668;23.250;2023-07-20T14:33:32;48906.50;;;-141.90;25.97
5298;BME280;14738;42.668;23.250;2023-07-20T14:35:58;48870.75;;;-141.90;26.56
5298;BME280;14738;42.668;23.250;2023-07-20T14:38:23;48864.81;;;-141.90;26.79
5298;BME280;14738;42.668;23.250;2023-07-20T14:40:49;48898.56;;;-141.90;26.84
5298;BME280;14738;42.668;23.250;2023-07-20T14:43:14;48898.56;;;-141.90;26.70
5298;BME280;14738;42.668;23.250;2023-07-20T14:45:40;48890.59;;;-141.90;27.01
5298;BME280;14738;42.668;23.250;2023-07-20T14:48:06;48850.91;;;-141.90;27.62
5298;BME280;14738;42.668;23.250;2023-07-20T14:50:32;48874.72;;;-141.90;27.79
5298;BME280;14738;42.668;23.250;2023-07-20T14:52:58;48850.91;;;-141.90;27.42
5298;BME280;14738;42.668;23.250;2023-07-20T14:55:23;48910.47;;;-141.90;27.75
5298;BME280;14738;42.668;23.250;2023-07-20T14:57:50;48872.75;;;-141.90;27.39
5298;BME280;14738;42.668;23.250;2023-07-20T15:00:16;48850.91;;;-141.90;27.74
5298;BME280;14738;42.668;23.250;2023-07-20T15:02:41;48870.75;;;-141.90;28.02
5298;BME280;14738;42.668;23.250;2023-07-20T15:05:08;48858.84;;;-141.90;28.73
5298;BME280;14738;42.668;23.250;2023-07-20T15:07:34;48848.91;;;-141.90;28.22
5298;BME280;14738;42.668;23.250;2023-07-20T15:10:01;48872.75;;;-141.90;28.29
5298;BME280;14738;42.668;23.250;2023-07-20T15:12:26;48878.69;;;-141.90;28.35
5298;BME280;14738;42.668;23.250;2023-07-20T15:17:33;48850.91;;;-141.90;28.35
5298;BME280;14738;42.668;23.250;2023-07-20T15:20:00;48864.81;;;-141.90;28.23
5298;BME280;14738;42.668;23.250;2023-07-20T15:22:25;48831.03;;;-141.90;28.21
5298;BME280;14738;42.668;23.250;2023-07-20T15:24:51;48831.03;;;-141.90;28.78
5298;BME280;14738;42.668;23.250;2023-07-20T15:27:16;48844.94;;;-141.90;29.01
5298;BME280;14738;42.668;23.250;2023-07-20T15:29:42;48842.97;;;-141.90;29.16
5298;BME280;14738;42.668;23.250;2023-07-20T15:32:07;48858.84;;;-141.90;29.54
5298;BME280;14738;42.668;23.250;2023-07-20T15:34:34;48827.06;;;-141.90;29.12
5298;BME280;14738;42.668;23.250;2023-07-20T15:36:59;48839.00;;;-141.90;29.19
5298;BME280;14738;42.668;23.250;2023-07-20T15:39:24;48819.13;;;-141.90;29.41
5298;BME280;14738;42.668;23.250;2023-07-20T15:41:51;48835.03;;;-141.90;29.61
5298;BME280;14738;42.668;23.250;2023-07-20T15:44:16;48835.03;;;-141.90;29.48
5298;BME280;14738;42.668;23.250;2023-07-20T15:49:07;48815.16;;;-141.90;29.50
5298;BME280;14738;42.668;23.250;2023-07-20T15:51:36;48799.28;;;-141.90;29.48
5298;BME280;14738;42.668;23.250;2023-07-20T15:54:03;48835.03;;;-141.90;29.99
5298;BME280;14738;42.668;23.250;2023-07-20T15:56:31;48807.22;;;-141.90;29.86
5298;BME280;14738;42.668;23.250;2023-07-20T15:58:56;48771.47;;;-141.90;30.08
5298;BME280;14738;42.668;23.250;2023-07-20T16:01:21;48799.28;;;-141.90;30.18
5298;BME280;14738;42.668;23.250;2023-07-20T16:03:47;48833.03;;;-141.90;29.83
5298;BME280;14738;42.668;23.250;2023-07-20T16:06:13;48821.13;;;-141.90;30.37
5298;BME280;14738;42.668;23.250;2023-07-20T16:08:38;48791.34;;;-141.90;30.97
5298;BME280;14738;42.668;23.250;2023-07-20T16:11:03;48769.50;;;-141.90;30.93
5298;BME280;14738;42.668;23.250;2023-07-20T16:13:29;48759.56;;;-141.90;30.31
5298;BME280;14738;42.668;23.250;2023-07-20T16:15:54;48775.47;;;-141.90;31.25
5298;BME280;14738;42.668;23.250;2023-07-20T16:18:21;48739.72;;;-141.90;30.72
5298;BME280;14738;42.668;23.250;2023-07-20T16:20:46;48767.50;;;-141.90;31.12
5298;BME280;14738;42.668;23.250;2023-07-20T16:23:11;48745.69;;;-141.90;30.45
5298;BME280;14738;42.668;23.250;2023-07-20T16:25:37;48773.47;;;-141.90;30.25
5298;BME280;14738;42.668;23.250;2023-07-20T16:28:02;48775.47;;;-141.90;30.54
5298;BME280;14738;42.668;23.250;2023-07-20T16:30:29;48753.63;;;-141.90;30.94
5298;BME280;14738;42.668;23.250;2023-07-20T16:32:54;48703.97;;;-141.90;30.97
5298;BME280;14738;42.668;23.250;2023-07-20T16:35:20;48785.38;;;-141.90;31.00